sensor_id;sensor_type;location;lat;lon;timestamp;P1;durP1;ratioP1;P2;durP2;ratioP2
35488;SDS011;21602;55.670;37.578;2022-09-14T00:01:18;4.30;;;3.90;;
35488;SDS011;21602;55.670;37.578;2022-09-14T00:03:46;3.53;;;3.22;;
35488;SDS011;21602;55.670;37.578;2022-09-14T00:06:13;3.83;;;3.35;;
35488;SDS011;21602;55.670;37.578;2022-09-14T00:08:40;5.18;;;3.85;;
35488;SDS011;21602;55.670;37.578;2022-09-14T00:11:09;6.05;;;3.63;;
35488;SDS011;21602;55.670;37.578;2022-09-14T00:13:37;4.95;;;3.25;;
35488;SDS011;21602;55.670;37.578;2022-09-14T00:16:05;4.95;;;4.55;;
35488;SDS011;21602;55.670;37.578;2022-09-14T00:18:34;3.92;;;3.53;;
35488;SDS011;21602;55.670;37.578;2022-09-14T00:21:01;4.55;;;3.80;;
35488;SDS011;21602;55.670;37.578;2022-09-14T00:23:28;5.97;;;4.28;;
35488;SDS011;21602;55.670;37.578;2022-09-14T00:25:54;4.22;;;3.85;;
35488;SDS011;21602;55.670;37.578;2022-09-14T00:28:25;4.75;;;3.85;;
35488;SDS011;21602;55.670;37.578;2022-09-14T00:30:51;3.55;;;3.25;;
35488;SDS011;21602;55.670;37.578;2022-09-14T00:33:17;5.10;;;3.80;;
35488;SDS011;21602;55.670;37.578;2022-09-14T00:35:43;5.15;;;3.58;;
35488;SDS011;21602;55.670;37.578;2022-09-14T00:38:09;3.60;;;3.30;;
35488;SDS011;21602;55.670;37.578;2022-09-14T00:40:35;5.10;;;3.45;;
35488;SDS011;21602;55.670;37.578;2022-09-14T00:43:01;3.42;;;2.85;;
35488;SDS011;21602;55.670;37.578;2022-09-14T00:45:27;7.00;;;2.97;;
35488;SDS011;21602;55.670;37.578;2022-09-14T00:47:53;3.22;;;2.92;;
35488;SDS011;21602;55.670;37.578;2022-09-14T00:50:21;3.50;;;3.20;;
35488;SDS011;21602;55.670;37.578;2022-09-14T00:52:47;3.38;;;2.90;;
35488;SDS011;21602;55.670;37.578;2022-09-14T00:55:16;2.92;;;2.65;;
35488;SDS011;21602;55.670;37.578;2022-09-14T00:57:48;2.70;;;2.40;;
35488;SDS011;21602;55.670;37.578;2022-09-14T01:00:18;2.70;;;2.50;;
35488;SDS011;21602;55.670;37.578;2022-09-14T01:02:46;2.90;;;2.70;;
35488;SDS011;21602;55.670;37.578;2022-09-14T01:05:12;2.40;;;2.20;;
35488;SDS011;21602;55.670;37.578;2022-09-14T01:07:44;2.50;;;2.25;;
35488;SDS011;21602;55.670;37.578;2022-09-14T01:13:27;3.10;;;2.40;;
35488;SDS011;21602;55.670;37.578;2022-09-14T01:16:23;2.35;;;2.15;;
35488;SDS011;21602;55.670;37.578;2022-09-14T01:18:58;2.35;;;2.15;;
35488;SDS011;21602;55.670;37.578;2022-09-14T01:21:32;3.95;;;2.67;;
35488;SDS011;21602;55.670;37.578;2022-09-14T01:24:13;2.60;;;2.40;;
35488;SDS011;21602;55.670;37.578;2022-09-14T01:29:40;4.35;;;2.90;;
35488;SDS011;21602;55.670;37.578;2022-09-14T01:35:06;3.13;;;2.55;;
35488;SDS011;21602;55.670;37.578;2022-09-14T01:37:39;3.15;;;2.45;;
35488;SDS011;21602;55.670;37.578;2022-09-14T01:40:20;3.13;;;2.30;;
35488;SDS011;21602;55.670;37.578;2022-09-14T01:42:53;2.67;;;2.47;;
35488;SDS011;21602;55.670;37.578;2022-09-14T01:45:23;2.47;;;2.28;;
35488;SDS011;21602;55.670;37.578;2022-09-14T01:47:59;3.42;;;2.63;;
35488;SDS011;21602;55.670;37.578;2022-09-14T01:50:35;3.60;;;2.97;;
35488;SDS011;21602;55.670;37.578;2022-09-14T01:58:42;3.13;;;2.83;;
35488;SDS011;21602;55.670;37.578;2022-09-14T02:01:15;2.90;;;2.70;;
35488;SDS011;21602;55.670;37.578;2022-09-14T02:03:48;4.75;;;3.70;;
35488;SDS011;21602;55.670;37.578;2022-09-14T02:06:22;4.03;;;3.10;;
35488;SDS011;21602;55.670;37.578;2022-09-14T02:08:48;3.08;;;2.80;;
35488;SDS011;21602;55.670;37.578;2022-09-14T02:11:15;3.88;;;3.15;;
35488;SDS011;21602;55.670;37.578;2022-09-14T02:13:41;3.30;;;3.00;;
35488;SDS011;21602;55.670;37.578;2022-09-14T02:16:06;4.40;;;3.33;;
35488;SDS011;21602;55.670;37.578;2022-09-14T02:18:32;2.90;;;2.70;;
35488;SDS011;21602;55.670;37.578;2022-09-14T02:23:58;4.70;;;3.22;;
35488;SDS011;21602;55.670;37.578;2022-09-14T02:26:24;3.35;;;3.05;;
35488;SDS011;21602;55.670;37.578;2022-09-14T02:28:51;3.97;;;3.58;;
35488;SDS011;21602;55.670;37.578;2022-09-14T02:37:28;4.32;;;3.70;;
35488;SDS011;21602;55.670;37.578;2022-09-14T02:48:31;4.68;;;3.72;;
35488;SDS011;21602;55.670;37.578;2022-09-14T02:53:45;6.60;;;5.05;;
35488;SDS011;21602;55.670;37.578;2022-09-14T02:56:42;7.63;;;5.13;;
35488;SDS011;21602;55.670;37.578;2022-09-14T02:59:09;5.40;;;4.88;;
35488;SDS011;21602;55.670;37.578;2022-09-14T03:01:35;8.23;;;5.60;;
35488;SDS011;21602;55.670;37.578;2022-09-14T03:04:01;5.60;;;5.10;;
35488;SDS011;21602;55.670;37.578;2022-09-14T03:06:27;7.55;;;5.28;;
35488;SDS011;21602;55.670;37.578;2022-09-14T03:08:53;5.68;;;5.03;;
35488;SDS011;21602;55.670;37.578;2022-09-14T03:11:19;5.75;;;4.97;;
35488;SDS011;21602;55.670;37.578;2022-09-14T03:13:44;5.95;;;5.35;;
35488;SDS011;21602;55.670;37.578;2022-09-14T03:16:12;7.40;;;5.30;;
35488;SDS011;21602;55.670;37.578;2022-09-14T03:18:39;7.70;;;5.63;;
35488;SDS011;21602;55.670;37.578;2022-09-14T03:21:06;6.72;;;6.03;;
35488;SDS011;21602;55.670;37.578;2022-09-14T03:23:34;6.32;;;5.72;;
35488;SDS011;21602;55.670;37.578;2022-09-14T03:26:05;6.45;;;5.72;;
35488;SDS011;21602;55.670;37.578;2022-09-14T03:28:32;6.50;;;5.90;;
35488;SDS011;21602;55.670;37.578;2022-09-14T03:31:01;8.32;;;7.15;;
35488;SDS011;21602;55.670;37.578;2022-09-14T03:33:28;7.03;;;6.32;;
35488;SDS011;21602;55.670;37.578;2022-09-14T03:35:54;8.93;;;6.80;;
35488;SDS011;21602;55.670;37.578;2022-09-14T03:38:20;6.47;;;5.80;;
35488;SDS011;21602;55.670;37.578;2022-09-14T03:40:45;7.97;;;7.18;;
35488;SDS011;21602;55.670;37.578;2022-09-14T03:43:12;8.57;;;6.78;;
35488;SDS011;21602;55.670;37.578;2022-09-14T03:45:39;6.85;;;6.13;;
35488;SDS011;21602;55.670;37.578;2022-09-14T03:48:05;8.75;;;6.75;;
35488;SDS011;21602;55.670;37.578;2022-09-14T03:50:31;8.23;;;6.70;;
35488;SDS011;21602;55.670;37.578;2022-09-14T03:52:57;8.80;;;7.35;;
35488;SDS011;21602;55.670;37.578;2022-09-14T03:55:24;9.55;;;7.30;;
35488;SDS011;21602;55.670;37.578;2022-09-14T03:57:56;9.32;;;7.45;;
35488;SDS011;21602;55.670;37.578;2022-09-14T04:00:22;8.30;;;7.28;;
35488;SDS011;21602;55.670;37.578;2022-09-14T04:02:48;7.78;;;6.97;;
35488;SDS011;21602;55.670;37.578;2022-09-14T04:05:14;8.35;;;7.55;;
35488;SDS011;21602;55.670;37.578;2022-09-14T04:07:40;7.53;;;6.82;;
35488;SDS011;21602;55.670;37.578;2022-09-14T04:10:06;7.80;;;7.00;;
35488;SDS011;21602;55.670;37.578;2022-09-14T04:12:33;9.05;;;7.53;;
35488;SDS011;21602;55.670;37.578;2022-09-14T04:15:06;7.85;;;7.15;;
35488;SDS011;21602;55.670;37.578;2022-09-14T04:17:32;8.27;;;7.47;;
35488;SDS011;21602;55.670;37.578;2022-09-14T04:19:58;8.32;;;6.70;;
35488;SDS011;21602;55.670;37.578;2022-09-14T04:22:24;7.75;;;6.68;;
35488;SDS011;21602;55.670;37.578;2022-09-14T04:24:50;7.90;;;6.50;;
35488;SDS011;21602;55.670;37.578;2022-09-14T04:27:16;7.30;;;6.60;;
35488;SDS011;21602;55.670;37.578;2022-09-14T04:29:42;9.55;;;6.95;;
35488;SDS011;21602;55.670;37.578;2022-09-14T04:32:07;7.32;;;6.45;;
35488;SDS011;21602;55.670;37.578;2022-09-14T04:34:33;9.07;;;6.45;;
35488;SDS011;21602;55.670;37.578;2022-09-14T04:37:00;7.88;;;5.70;;
35488;SDS011;21602;55.670;37.578;2022-09-14T04:39:26;6.18;;;5.60;;
35488;SDS011;21602;55.670;37.578;2022-09-14T04:41:52;8.75;;;5.63;;
35488;SDS011;21602;55.670;37.578;2022-09-14T04:44:18;8.63;;;6.40;;
35488;SDS011;21602;55.670;37.578;2022-09-14T04:46:43;6.50;;;5.90;;
35488;SDS011;21602;55.670;37.578;2022-09-14T04:49:09;7.13;;;6.22;;
35488;SDS011;21602;55.670;37.578;2022-09-14T04:51:35;7.30;;;6.18;;
35488;SDS011;21602;55.670;37.578;2022-09-14T04:54:02;7.18;;;6.25;;
35488;SDS011;21602;55.670;37.578;2022-09-14T04:56:30;6.53;;;5.83;;
35488;SDS011;21602;55.670;37.578;2022-09-14T04:58:58;6.22;;;5.68;;
35488;SDS011;21602;55.670;37.578;2022-09-14T05:01:33;5.20;;;4.70;;
35488;SDS011;21602;55.670;37.578;2022-09-14T05:04:01;5.78;;;5.28;;
35488;SDS011;21602;55.670;37.578;2022-09-14T05:06:29;6.20;;;5.47;;
35488;SDS011;21602;55.670;37.578;2022-09-14T05:08:58;6.22;;;5.53;;
35488;SDS011;21602;55.670;37.578;2022-09-14T05:11:26;6.13;;;5.47;;
35488;SDS011;21602;55.670;37.578;2022-09-14T05:13:54;6.05;;;5.53;;
35488;SDS011;21602;55.670;37.578;2022-09-14T05:16:25;6.18;;;5.65;;
35488;SDS011;21602;55.670;37.578;2022-09-14T05:18:55;7.25;;;6.05;;
35488;SDS011;21602;55.670;37.578;2022-09-14T05:21:22;5.55;;;5.05;;
35488;SDS011;21602;55.670;37.578;2022-09-14T05:23:52;6.20;;;5.60;;
35488;SDS011;21602;55.670;37.578;2022-09-14T05:26:23;6.63;;;5.93;;
35488;SDS011;21602;55.670;37.578;2022-09-14T05:28:51;6.40;;;5.75;;
35488;SDS011;21602;55.670;37.578;2022-09-14T05:31:18;6.72;;;6.07;;
35488;SDS011;21602;55.670;37.578;2022-09-14T05:33:44;6.50;;;5.90;;
35488;SDS011;21602;55.670;37.578;2022-09-14T05:36:11;6.43;;;5.60;;
35488;SDS011;21602;55.670;37.578;2022-09-14T05:38:37;6.60;;;6.00;;
35488;SDS011;21602;55.670;37.578;2022-09-14T05:41:04;6.72;;;6.03;;
35488;SDS011;21602;55.670;37.578;2022-09-14T05:43:31;7.18;;;6.47;;
35488;SDS011;21602;55.670;37.578;2022-09-14T05:46:01;7.30;;;6.63;;
35488;SDS011;21602;55.670;37.578;2022-09-14T05:48:32;7.05;;;6.40;;
35488;SDS011;21602;55.670;37.578;2022-09-14T05:51:00;7.00;;;6.22;;
35488;SDS011;21602;55.670;37.578;2022-09-14T05:53:32;7.55;;;6.80;;
35488;SDS011;21602;55.670;37.578;2022-09-14T05:55:59;6.70;;;6.10;;
35488;SDS011;21602;55.670;37.578;2022-09-14T05:58:29;8.65;;;6.80;;
35488;SDS011;21602;55.670;37.578;2022-09-14T06:00:55;8.23;;;6.13;;
35488;SDS011;21602;55.670;37.578;2022-09-14T06:03:22;7.10;;;6.40;;
35488;SDS011;21602;55.670;37.578;2022-09-14T06:05:48;7.32;;;6.07;;
35488;SDS011;21602;55.670;37.578;2022-09-14T06:08:14;8.70;;;5.53;;
35488;SDS011;21602;55.670;37.578;2022-09-14T06:10:39;6.15;;;5.65;;
35488;SDS011;21602;55.670;37.578;2022-09-14T06:13:05;7.43;;;6.18;;
35488;SDS011;21602;55.670;37.578;2022-09-14T06:15:32;6.07;;;5.57;;
35488;SDS011;21602;55.670;37.578;2022-09-14T06:17:59;6.97;;;6.28;;
35488;SDS011;21602;55.670;37.578;2022-09-14T06:20:24;6.25;;;5.65;;
35488;SDS011;21602;55.670;37.578;2022-09-14T06:22:50;6.47;;;5.88;;
35488;SDS011;21602;55.670;37.578;2022-09-14T06:25:16;6.35;;;5.75;;
35488;SDS011;21602;55.670;37.578;2022-09-14T06:27:41;6.10;;;5.50;;
35488;SDS011;21602;55.670;37.578;2022-09-14T06:30:07;6.88;;;4.95;;
35488;SDS011;21602;55.670;37.578;2022-09-14T06:32:33;6.50;;;5.82;;
35488;SDS011;21602;55.670;37.578;2022-09-14T06:34:59;5.72;;;5.13;;
35488;SDS011;21602;55.670;37.578;2022-09-14T06:37:25;6.65;;;5.82;;
35488;SDS011;21602;55.670;37.578;2022-09-14T06:39:50;7.32;;;6.07;;
35488;SDS011;21602;55.670;37.578;2022-09-14T06:42:16;6.70;;;6.00;;
35488;SDS011;21602;55.670;37.578;2022-09-14T06:44:42;6.32;;;5.53;;
35488;SDS011;21602;55.670;37.578;2022-09-14T06:47:08;6.80;;;6.18;;
35488;SDS011;21602;55.670;37.578;2022-09-14T06:49:33;7.88;;;6.03;;
35488;SDS011;21602;55.670;37.578;2022-09-14T06:51:59;7.97;;;6.18;;
35488;SDS011;21602;55.670;37.578;2022-09-14T06:54:25;6.45;;;5.70;;
35488;SDS011;21602;55.670;37.578;2022-09-14T06:56:51;6.47;;;5.88;;
35488;SDS011;21602;55.670;37.578;2022-09-14T06:59:17;6.25;;;5.65;;
35488;SDS011;21602;55.670;37.578;2022-09-14T07:01:44;6.93;;;5.50;;
35488;SDS011;21602;55.670;37.578;2022-09-14T07:04:10;6.85;;;5.80;;
35488;SDS011;21602;55.670;37.578;2022-09-14T07:06:38;5.80;;;5.13;;
35488;SDS011;21602;55.670;37.578;2022-09-14T07:09:06;5.53;;;5.03;;
35488;SDS011;21602;55.670;37.578;2022-09-14T07:11:32;5.97;;;5.38;;
35488;SDS011;21602;55.670;37.578;2022-09-14T07:13:58;6.05;;;5.45;;
35488;SDS011;21602;55.670;37.578;2022-09-14T07:16:25;6.80;;;5.75;;
35488;SDS011;21602;55.670;37.578;2022-09-14T07:18:59;6.88;;;6.28;;
35488;SDS011;21602;55.670;37.578;2022-09-14T07:21:26;7.47;;;6.20;;
35488;SDS011;21602;55.670;37.578;2022-09-14T07:23:52;7.35;;;6.57;;
35488;SDS011;21602;55.670;37.578;2022-09-14T07:26:20;7.55;;;6.80;;
35488;SDS011;21602;55.670;37.578;2022-09-14T07:28:55;7.95;;;7.15;;
35488;SDS011;21602;55.670;37.578;2022-09-14T07:31:25;7.38;;;6.68;;
35488;SDS011;21602;55.670;37.578;2022-09-14T07:33:54;9.23;;;6.60;;
35488;SDS011;21602;55.670;37.578;2022-09-14T07:36:21;10.25;;;6.53;;
35488;SDS011;21602;55.670;37.578;2022-09-14T07:38:48;7.70;;;6.80;;
35488;SDS011;21602;55.670;37.578;2022-09-14T07:41:14;9.20;;;7.55;;
35488;SDS011;21602;55.670;37.578;2022-09-14T07:43:39;9.85;;;6.03;;
35488;SDS011;21602;55.670;37.578;2022-09-14T07:46:05;5.72;;;5.15;;
35488;SDS011;21602;55.670;37.578;2022-09-14T07:48:32;7.85;;;5.85;;
35488;SDS011;21602;55.670;37.578;2022-09-14T07:51:07;7.00;;;5.55;;
35488;SDS011;21602;55.670;37.578;2022-09-14T07:53:37;5.65;;;5.15;;
35488;SDS011;21602;55.670;37.578;2022-09-14T07:56:05;6.25;;;5.68;;
35488;SDS011;21602;55.670;37.578;2022-09-14T08:01:04;6.43;;;5.45;;
35488;SDS011;21602;55.670;37.578;2022-09-14T08:03:32;6.25;;;5.65;;
35488;SDS011;21602;55.670;37.578;2022-09-14T08:06:01;8.02;;;5.95;;
35488;SDS011;21602;55.670;37.578;2022-09-14T08:08:30;7.05;;;5.95;;
35488;SDS011;21602;55.670;37.578;2022-09-14T08:11:09;8.10;;;6.80;;
35488;SDS011;21602;55.670;37.578;2022-09-14T08:13:45;6.75;;;6.03;;
35488;SDS011;21602;55.670;37.578;2022-09-14T08:16:13;5.72;;;5.20;;
35488;SDS011;21602;55.670;37.578;2022-09-14T08:18:39;9.10;;;5.90;;
35488;SDS011;21602;55.670;37.578;2022-09-14T08:21:05;9.02;;;5.88;;
35488;SDS011;21602;55.670;37.578;2022-09-14T08:23:36;8.70;;;5.68;;
35488;SDS011;21602;55.670;37.578;2022-09-14T08:26:06;7.07;;;6.07;;
35488;SDS011;21602;55.670;37.578;2022-09-14T08:28:36;6.40;;;5.60;;
35488;SDS011;21602;55.670;37.578;2022-09-14T08:31:03;7.18;;;5.50;;
35488;SDS011;21602;55.670;37.578;2022-09-14T08:33:31;7.22;;;5.40;;
35488;SDS011;21602;55.670;37.578;2022-09-14T08:35:58;6.10;;;5.50;;
35488;SDS011;21602;55.670;37.578;2022-09-14T08:38:24;8.68;;;5.40;;
35488;SDS011;21602;55.670;37.578;2022-09-14T08:40:51;8.00;;;5.93;;
35488;SDS011;21602;55.670;37.578;2022-09-14T08:43:18;9.10;;;6.45;;
35488;SDS011;21602;55.670;37.578;2022-09-14T08:45:48;13.93;;;6.72;;
35488;SDS011;21602;55.670;37.578;2022-09-14T08:50:47;8.38;;;6.15;;
35488;SDS011;21602;55.670;37.578;2022-09-14T08:53:21;7.03;;;5.80;;
35488;SDS011;21602;55.670;37.578;2022-09-14T09:04:27;9.70;;;6.57;;
35488;SDS011;21602;55.670;37.578;2022-09-14T09:07:50;6.35;;;5.75;;
35488;SDS011;21602;55.670;37.578;2022-09-14T09:10:02;7.80;;;5.72;;
35488;SDS011;21602;55.670;37.578;2022-09-14T09:12:36;7.40;;;5.30;;
35488;SDS011;21602;55.670;37.578;2022-09-14T09:15:18;8.20;;;5.55;;
35488;SDS011;21602;55.670;37.578;2022-09-14T09:17:48;6.40;;;5.80;;
35488;SDS011;21602;55.670;37.578;2022-09-14T09:23:17;8.32;;;6.20;;
35488;SDS011;21602;55.670;37.578;2022-09-14T09:28:20;6.45;;;5.28;;
35488;SDS011;21602;55.670;37.578;2022-09-14T09:30:47;5.40;;;4.90;;
35488;SDS011;21602;55.670;37.578;2022-09-14T09:33:16;9.75;;;5.30;;
35488;SDS011;21602;55.670;37.578;2022-09-14T09:35:59;6.03;;;5.13;;
35488;SDS011;21602;55.670;37.578;2022-09-14T09:38:29;5.85;;;5.22;;
35488;SDS011;21602;55.670;37.578;2022-09-14T09:40:59;5.75;;;5.20;;
35488;SDS011;21602;55.670;37.578;2022-09-14T09:43:30;5.05;;;4.55;;
35488;SDS011;21602;55.670;37.578;2022-09-14T09:45:59;5.55;;;4.70;;
35488;SDS011;21602;55.670;37.578;2022-09-14T09:53:31;5.28;;;4.78;;
35488;SDS011;21602;55.670;37.578;2022-09-14T09:55:58;5.40;;;4.90;;
35488;SDS011;21602;55.670;37.578;2022-09-14T10:03:27;4.45;;;4.05;;
35488;SDS011;21602;55.670;37.578;2022-09-14T10:05:59;4.78;;;4.28;;
35488;SDS011;21602;55.670;37.578;2022-09-14T10:10:52;5.05;;;4.47;;
35488;SDS011;21602;55.670;37.578;2022-09-14T10:13:26;4.57;;;4.07;;
35488;SDS011;21602;55.670;37.578;2022-09-14T10:16:04;5.57;;;3.60;;
35488;SDS011;21602;55.670;37.578;2022-09-14T10:18:42;7.82;;;5.45;;
35488;SDS011;21602;55.670;37.578;2022-09-14T10:21:14;5.03;;;3.80;;
35488;SDS011;21602;55.670;37.578;2022-09-14T10:23:43;5.82;;;3.42;;
35488;SDS011;21602;55.670;37.578;2022-09-14T10:28:35;10.95;;;3.47;;
35488;SDS011;21602;55.670;37.578;2022-09-14T10:33:40;4.32;;;3.00;;
35488;SDS011;21602;55.670;37.578;2022-09-14T10:52:04;7.00;;;4.07;;
35488;SDS011;21602;55.670;37.578;2022-09-14T10:54:52;5.55;;;4.38;;
35488;SDS011;21602;55.670;37.578;2022-09-14T11:00:24;7.65;;;4.00;;
35488;SDS011;21602;55.670;37.578;2022-09-14T11:06:00;6.82;;;4.43;;
35488;SDS011;21602;55.670;37.578;2022-09-14T11:17:33;6.20;;;3.20;;
35488;SDS011;21602;55.670;37.578;2022-09-14T11:25:35;6.88;;;3.85;;
35488;SDS011;21602;55.670;37.578;2022-09-14T11:28:21;5.30;;;3.95;;
35488;SDS011;21602;55.670;37.578;2022-09-14T11:31:14;4.38;;;3.75;;
35488;SDS011;21602;55.670;37.578;2022-09-14T11:38:47;7.18;;;4.10;;
35488;SDS011;21602;55.670;37.578;2022-09-14T11:41:31;6.95;;;3.72;;
35488;SDS011;21602;55.670;37.578;2022-09-14T11:44:09;5.20;;;3.50;;
35488;SDS011;21602;55.670;37.578;2022-09-14T11:47:02;5.68;;;3.75;;
35488;SDS011;21602;55.670;37.578;2022-09-14T11:52:16;6.88;;;3.92;;
35488;SDS011;21602;55.670;37.578;2022-09-14T11:54:48;5.82;;;4.20;;
35488;SDS011;21602;55.670;37.578;2022-09-14T11:57:35;4.70;;;4.22;;
35488;SDS011;21602;55.670;37.578;2022-09-14T12:00:07;5.82;;;4.05;;
35488;SDS011;21602;55.670;37.578;2022-09-14T12:09:30;10.15;;;4.68;;
35488;SDS011;21602;55.670;37.578;2022-09-14T12:11:50;7.10;;;4.35;;
35488;SDS011;21602;55.670;37.578;2022-09-14T12:17:04;5.95;;;4.40;;
35488;SDS011;21602;55.670;37.578;2022-09-14T12:20:19;6.00;;;3.47;;
35488;SDS011;21602;55.670;37.578;2022-09-14T12:22:45;7.20;;;4.40;;
35488;SDS011;21602;55.670;37.578;2022-09-14T12:27:43;6.57;;;4.47;;
35488;SDS011;21602;55.670;37.578;2022-09-14T12:34:02;4.95;;;3.85;;
35488;SDS011;21602;55.670;37.578;2022-09-14T12:36:00;6.32;;;4.00;;
35488;SDS011;21602;55.670;37.578;2022-09-14T12:40:56;6.45;;;4.40;;
35488;SDS011;21602;55.670;37.578;2022-09-14T12:46:03;8.80;;;4.78;;
35488;SDS011;21602;55.670;37.578;2022-09-14T12:59:02;7.50;;;3.70;;
35488;SDS011;21602;55.670;37.578;2022-09-14T13:01:47;7.55;;;3.80;;
35488;SDS011;21602;55.670;37.578;2022-09-14T13:04:35;6.63;;;3.78;;
35488;SDS011;21602;55.670;37.578;2022-09-14T13:09:37;5.35;;;3.33;;
35488;SDS011;21602;55.670;37.578;2022-09-14T13:12:11;5.32;;;4.05;;
35488;SDS011;21602;55.670;37.578;2022-09-14T13:14:50;5.78;;;4.28;;
35488;SDS011;21602;55.670;37.578;2022-09-14T13:17:19;6.28;;;3.53;;
35488;SDS011;21602;55.670;37.578;2022-09-14T13:19:55;8.48;;;4.05;;
35488;SDS011;21602;55.670;37.578;2022-09-14T13:22:25;4.60;;;3.70;;
35488;SDS011;21602;55.670;37.578;2022-09-14T13:24:53;5.20;;;4.43;;
35488;SDS011;21602;55.670;37.578;2022-09-14T13:27:21;4.05;;;3.50;;
35488;SDS011;21602;55.670;37.578;2022-09-14T13:30:23;12.70;;;4.43;;
35488;SDS011;21602;55.670;37.578;2022-09-14T13:32:48;4.20;;;3.70;;
35488;SDS011;21602;55.670;37.578;2022-09-14T13:35:16;6.38;;;3.83;;
35488;SDS011;21602;55.670;37.578;2022-09-14T13:37:49;4.63;;;4.10;;
35488;SDS011;21602;55.670;37.578;2022-09-14T13:40:15;6.57;;;3.88;;
35488;SDS011;21602;55.670;37.578;2022-09-14T13:42:41;7.38;;;4.18;;
35488;SDS011;21602;55.670;37.578;2022-09-14T13:45:08;9.40;;;4.55;;
35488;SDS011;21602;55.670;37.578;2022-09-14T13:47:37;7.63;;;4.97;;
35488;SDS011;21602;55.670;37.578;2022-09-14T13:50:04;7.72;;;4.43;;
35488;SDS011;21602;55.670;37.578;2022-09-14T13:52:35;7.43;;;4.68;;
35488;SDS011;21602;55.670;37.578;2022-09-14T13:55:23;6.47;;;4.43;;
35488;SDS011;21602;55.670;37.578;2022-09-14T13:58:04;6.30;;;3.47;;
35488;SDS011;21602;55.670;37.578;2022-09-14T14:00:45;7.67;;;4.13;;
35488;SDS011;21602;55.670;37.578;2022-09-14T14:05:49;7.00;;;4.55;;
35488;SDS011;21602;55.670;37.578;2022-09-14T14:08:25;5.22;;;4.40;;
35488;SDS011;21602;55.670;37.578;2022-09-14T14:10:55;5.38;;;3.78;;
35488;SDS011;21602;55.670;37.578;2022-09-14T14:13:23;6.63;;;4.22;;
35488;SDS011;21602;55.670;37.578;2022-09-14T14:16:11;9.60;;;4.72;;
35488;SDS011;21602;55.670;37.578;2022-09-14T14:18:42;7.50;;;4.30;;
35488;SDS011;21602;55.670;37.578;2022-09-14T14:29:21;5.88;;;4.20;;
35488;SDS011;21602;55.670;37.578;2022-09-14T14:31:50;7.20;;;4.20;;
35488;SDS011;21602;55.670;37.578;2022-09-14T14:34:17;6.40;;;4.30;;
35488;SDS011;21602;55.670;37.578;2022-09-14T14:36:45;15.75;;;5.00;;
35488;SDS011;21602;55.670;37.578;2022-09-14T14:39:15;10.35;;;5.38;;
35488;SDS011;21602;55.670;37.578;2022-09-14T14:41:42;9.57;;;5.28;;
35488;SDS011;21602;55.670;37.578;2022-09-14T14:44:14;6.68;;;5.63;;
35488;SDS011;21602;55.670;37.578;2022-09-14T14:46:42;9.48;;;4.55;;
35488;SDS011;21602;55.670;37.578;2022-09-14T14:49:10;10.10;;;4.72;;
35488;SDS011;21602;55.670;37.578;2022-09-14T14:51:38;8.65;;;4.35;;
35488;SDS011;21602;55.670;37.578;2022-09-14T14:54:04;5.03;;;4.53;;
35488;SDS011;21602;55.670;37.578;2022-09-14T14:56:31;6.75;;;4.80;;
35488;SDS011;21602;55.670;37.578;2022-09-14T14:58:56;8.20;;;5.60;;
35488;SDS011;21602;55.670;37.578;2022-09-14T15:01:25;17.80;;;5.10;;
35488;SDS011;21602;55.670;37.578;2022-09-14T15:03:51;6.78;;;4.45;;
35488;SDS011;21602;55.670;37.578;2022-09-14T15:06:19;16.73;;;5.35;;
35488;SDS011;21602;55.670;37.578;2022-09-14T15:08:55;6.10;;;4.43;;
35488;SDS011;21602;55.670;37.578;2022-09-14T15:11:21;10.75;;;5.25;;
35488;SDS011;21602;55.670;37.578;2022-09-14T15:13:47;6.13;;;4.53;;
35488;SDS011;21602;55.670;37.578;2022-09-14T15:16:13;10.98;;;4.95;;
35488;SDS011;21602;55.670;37.578;2022-09-14T15:18:40;8.40;;;5.60;;
35488;SDS011;21602;55.670;37.578;2022-09-14T15:21:06;8.02;;;4.85;;
35488;SDS011;21602;55.670;37.578;2022-09-14T15:23:35;7.38;;;4.88;;
35488;SDS011;21602;55.670;37.578;2022-09-14T15:26:04;11.40;;;4.50;;
35488;SDS011;21602;55.670;37.578;2022-09-14T15:28:31;8.65;;;5.13;;
35488;SDS011;21602;55.670;37.578;2022-09-14T15:31:00;12.00;;;5.25;;
35488;SDS011;21602;55.670;37.578;2022-09-14T15:33:26;6.40;;;4.55;;
35488;SDS011;21602;55.670;37.578;2022-09-14T15:35:55;13.60;;;5.53;;
35488;SDS011;21602;55.670;37.578;2022-09-14T15:38:22;6.47;;;4.85;;
35488;SDS011;21602;55.670;37.578;2022-09-14T15:40:48;8.05;;;5.40;;
35488;SDS011;21602;55.670;37.578;2022-09-14T15:43:15;6.65;;;4.88;;
35488;SDS011;21602;55.670;37.578;2022-09-14T15:45:41;6.70;;;4.88;;
35488;SDS011;21602;55.670;37.578;2022-09-14T15:48:11;10.82;;;5.82;;
35488;SDS011;21602;55.670;37.578;2022-09-14T15:50:41;9.38;;;4.88;;
35488;SDS011;21602;55.670;37.578;2022-09-14T15:53:13;6.25;;;4.50;;
35488;SDS011;21602;55.670;37.578;2022-09-14T15:55:40;9.10;;;5.32;;
35488;SDS011;21602;55.670;37.578;2022-09-14T15:58:08;9.02;;;4.88;;
35488;SDS011;21602;55.670;37.578;2022-09-14T16:00:35;7.30;;;5.05;;
35488;SDS011;21602;55.670;37.578;2022-09-14T16:03:02;7.07;;;5.40;;
35488;SDS011;21602;55.670;37.578;2022-09-14T16:05:29;8.10;;;5.72;;
35488;SDS011;21602;55.670;37.578;2022-09-14T16:07:55;8.15;;;5.57;;
35488;SDS011;21602;55.670;37.578;2022-09-14T16:10:22;11.43;;;5.28;;
35488;SDS011;21602;55.670;37.578;2022-09-14T16:12:52;11.93;;;5.50;;
35488;SDS011;21602;55.670;37.578;2022-09-14T16:15:21;8.38;;;5.55;;
35488;SDS011;21602;55.670;37.578;2022-09-14T16:17:48;9.23;;;6.97;;
35488;SDS011;21602;55.670;37.578;2022-09-14T16:20:16;11.75;;;6.68;;
35488;SDS011;21602;55.670;37.578;2022-09-14T16:22:42;9.20;;;6.13;;
35488;SDS011;21602;55.670;37.578;2022-09-14T16:25:10;8.80;;;6.35;;
35488;SDS011;21602;55.670;37.578;2022-09-14T16:27:36;10.60;;;7.47;;
35488;SDS011;21602;55.670;37.578;2022-09-14T16:30:02;11.07;;;7.15;;
35488;SDS011;21602;55.670;37.578;2022-09-14T16:32:29;8.85;;;6.80;;
35488;SDS011;21602;55.670;37.578;2022-09-14T16:34:55;9.93;;;7.00;;
35488;SDS011;21602;55.670;37.578;2022-09-14T16:37:21;11.25;;;7.72;;
35488;SDS011;21602;55.670;37.578;2022-09-14T16:39:47;10.15;;;7.60;;
35488;SDS011;21602;55.670;37.578;2022-09-14T16:42:13;12.82;;;7.63;;
35488;SDS011;21602;55.670;37.578;2022-09-14T16:44:39;10.98;;;7.10;;
35488;SDS011;21602;55.670;37.578;2022-09-14T16:47:05;11.93;;;8.20;;
35488;SDS011;21602;55.670;37.578;2022-09-14T16:49:31;10.95;;;7.80;;
35488;SDS011;21602;55.670;37.578;2022-09-14T16:51:57;14.43;;;8.43;;
35488;SDS011;21602;55.670;37.578;2022-09-14T16:54:26;11.55;;;8.63;;
35488;SDS011;21602;55.670;37.578;2022-09-14T16:56:56;15.93;;;9.13;;
35488;SDS011;21602;55.670;37.578;2022-09-14T16:59:24;16.27;;;9.15;;
35488;SDS011;21602;55.670;37.578;2022-09-14T17:01:51;10.70;;;8.45;;
35488;SDS011;21602;55.670;37.578;2022-09-14T17:04:17;9.57;;;8.18;;
35488;SDS011;21602;55.670;37.578;2022-09-14T17:06:47;11.75;;;8.75;;
35488;SDS011;21602;55.670;37.578;2022-09-14T17:09:16;11.95;;;9.32;;
35488;SDS011;21602;55.670;37.578;2022-09-14T17:11:43;13.38;;;9.85;;
35488;SDS011;21602;55.670;37.578;2022-09-14T17:14:13;18.98;;;9.63;;
35488;SDS011;21602;55.670;37.578;2022-09-14T17:16:43;17.55;;;10.65;;
35488;SDS011;21602;55.670;37.578;2022-09-14T17:19:10;13.93;;;9.93;;
35488;SDS011;21602;55.670;37.578;2022-09-14T17:21:38;12.95;;;9.32;;
35488;SDS011;21602;55.670;37.578;2022-09-14T17:24:06;15.13;;;10.02;;
35488;SDS011;21602;55.670;37.578;2022-09-14T17:26:33;12.00;;;9.07;;